createdAt,value
2018-11-11T00:01:54.343Z,92.30
2018-11-11T00:04:27.871Z,92.30
2018-11-11T00:07:01.386Z,92.00
2018-11-11T00:09:52.912Z,92.00
2018-11-11T00:12:26.525Z,92.00
2018-11-11T00:15:00.126Z,91.90
2018-11-11T00:17:33.679Z,92.30
2018-11-11T00:20:08.266Z,92.00
2018-11-11T00:22:42.118Z,91.80
2018-11-11T00:25:15.827Z,91.70
2018-11-11T00:27:49.357Z,91.90
2018-11-11T00:30:22.822Z,92.50
2018-11-11T00:32:56.358Z,92.90
2018-11-11T00:35:30.026Z,93.20
2018-11-11T00:38:03.667Z,93.50
2018-11-11T00:40:37.212Z,94.30
2018-11-11T00:43:10.840Z,94.50
2018-11-11T00:45:44.347Z,94.80
2018-11-11T00:48:17.833Z,95.20
2018-11-11T00:50:51.192Z,95.30
2018-11-11T00:53:31.711Z,95.70
2018-11-11T00:56:05.318Z,95.80
2018-11-11T00:58:38.820Z,95.80
2018-11-11T01:01:12.372Z,95.70
2018-11-11T01:03:46.841Z,95.10
2018-11-11T01:06:20.436Z,95.30
2018-11-11T01:08:53.839Z,95.60
2018-11-11T01:11:27.295Z,95.90
2018-11-11T01:14:00.736Z,95.60
2018-11-11T01:16:34.316Z,95.70
2018-11-11T01:19:08.228Z,95.90
2018-11-11T01:21:42.365Z,96.20
2018-11-11T01:24:16.008Z,96.20
2018-11-11T01:26:49.561Z,95.80
2018-11-11T01:29:23.465Z,95.90
2018-11-11T01:31:56.905Z,96.20
2018-11-11T01:34:30.740Z,96.80
2018-11-11T01:37:04.655Z,96.20
2018-11-11T01:39:38.456Z,95.90
2018-11-11T01:42:11.955Z,95.80
2018-11-11T01:44:45.659Z,96.10
2018-11-11T01:47:19.295Z,96.40
2018-11-11T01:49:52.974Z,96.00
2018-11-11T01:52:26.454Z,96.10
2018-11-11T01:55:00.180Z,96.10
2018-11-11T01:57:33.784Z,96.50
2018-11-11T02:00:10.663Z,96.10
2018-11-11T02:02:44.876Z,96.20
2018-11-11T02:05:18.314Z,96.20
2018-11-11T02:07:51.870Z,96.60
2018-11-11T02:10:25.262Z,96.10
2018-11-11T02:12:58.939Z,96.30
2018-11-11T02:15:32.366Z,96.20
2018-11-11T02:18:06.685Z,96.30
2018-11-11T02:20:40.323Z,96.40
2018-11-11T02:23:14.126Z,96.20
2018-11-11T02:25:47.654Z,96.10
2018-11-11T02:28:21.179Z,96.20
2018-11-11T02:30:54.759Z,96.40
2018-11-11T02:33:28.422Z,96.10
2018-11-11T02:36:01.885Z,96.60
2018-11-11T02:38:35.461Z,96.20
2018-11-11T02:41:08.900Z,96.30
2018-11-11T02:43:42.430Z,96.10
2018-11-11T02:46:16.071Z,96.30
2018-11-11T02:48:49.445Z,96.60
2018-11-11T02:51:22.981Z,96.10
2018-11-11T02:53:56.439Z,96.10
2018-11-11T02:56:29.903Z,96.10
2018-11-11T02:59:03.231Z,96.10
2018-11-11T03:01:36.829Z,96.00
2018-11-11T03:04:10.628Z,96.20
2018-11-11T03:06:44.083Z,96.00
2018-11-11T03:09:17.616Z,95.70
2018-11-11T03:11:51.050Z,95.80
2018-11-11T03:14:24.567Z,96.10
2018-11-11T03:16:58.095Z,96.10
2018-11-11T03:19:31.543Z,95.90
2018-11-11T03:22:05.255Z,96.10
2018-11-11T03:24:38.750Z,95.80
2018-11-11T03:27:12.321Z,95.70
2018-11-11T03:29:46.169Z,95.70
2018-11-11T03:32:19.709Z,96.20
2018-11-11T03:34:53.222Z,95.90
2018-11-11T03:37:26.719Z,95.60
2018-11-11T03:40:00.288Z,95.70
2018-11-11T03:42:33.961Z,95.60
2018-11-11T03:45:09.478Z,95.70
2018-11-11T03:47:44.114Z,95.60
2018-11-11T03:50:17.836Z,95.50
2018-11-11T03:52:51.535Z,95.50
2018-11-11T03:55:25.203Z,95.30
2018-11-11T03:57:58.896Z,95.50
2018-11-11T04:00:32.398Z,95.60
2018-11-11T04:03:06.063Z,95.60
2018-11-11T04:05:39.545Z,95.30
2018-11-11T04:08:13.045Z,95.20
2018-11-11T04:10:46.572Z,95.30
2018-11-11T04:13:20.128Z,95.50
2018-11-11T04:15:53.766Z,95.50
2018-11-11T04:18:27.323Z,95.50
2018-11-11T04:21:00.928Z,95.70
2018-11-11T04:23:34.700Z,95.80
2018-11-11T04:26:08.140Z,95.50
2018-11-11T04:28:41.725Z,95.60
2018-11-11T04:31:15.184Z,95.60
2018-11-11T04:33:48.764Z,95.60
2018-11-11T04:36:22.474Z,95.10
2018-11-11T04:38:56.115Z,95.20
2018-11-11T04:41:29.742Z,95.30
2018-11-11T04:44:03.237Z,95.30
2018-11-11T04:46:36.790Z,95.80
2018-11-11T04:49:10.256Z,95.90
2018-11-11T04:51:43.874Z,95.50
2018-11-11T04:54:17.590Z,95.60
2018-11-11T04:56:51.298Z,95.40
2018-11-11T04:59:24.959Z,95.40
2018-11-11T05:01:58.462Z,95.20
2018-11-11T05:04:32.030Z,95.10
2018-11-11T05:07:06.163Z,94.60
2018-11-11T05:09:39.905Z,94.80
2018-11-11T05:12:13.526Z,94.30
2018-11-11T05:14:46.938Z,94.60
2018-11-11T05:17:20.369Z,94.70
2018-11-11T05:19:53.872Z,94.90
2018-11-11T05:22:27.461Z,94.60
2018-11-11T05:25:00.998Z,94.90
2018-11-11T05:27:34.460Z,95.00
2018-11-11T05:30:09.259Z,94.80
2018-11-11T05:32:42.820Z,94.50
2018-11-11T05:35:16.289Z,94.60
2018-11-11T05:37:49.891Z,94.60
2018-11-11T05:40:23.516Z,94.30
2018-11-11T05:42:56.858Z,94.20
2018-11-11T05:45:30.284Z,94.80
2018-11-11T05:48:03.909Z,94.80
2018-11-11T05:50:37.617Z,94.80
2018-11-11T05:53:11.317Z,94.70
2018-11-11T05:55:45.903Z,94.60
2018-11-11T05:58:19.707Z,94.50
2018-11-11T06:00:53.247Z,94.50
2018-11-11T06:03:26.880Z,94.40
2018-11-11T06:06:00.512Z,94.30
2018-11-11T06:08:34.131Z,94.30
2018-11-11T06:11:07.644Z,94.30
2018-11-11T06:13:41.108Z,94.00
2018-11-11T06:16:14.738Z,93.70
2018-11-11T06:18:48.301Z,93.70
2018-11-11T06:21:21.939Z,93.90
2018-11-11T06:23:55.489Z,93.90
2018-11-11T06:26:29.024Z,94.10
2018-11-11T06:29:02.434Z,94.00
2018-11-11T06:31:36.011Z,94.30
2018-11-11T06:34:09.596Z,94.00
2018-11-11T06:36:42.946Z,94.10
2018-11-11T06:39:16.424Z,94.20
2018-11-11T06:41:49.821Z,94.80
2018-11-11T06:44:23.241Z,94.00
2018-11-11T06:46:56.608Z,94.10
2018-11-11T06:49:29.990Z,93.90
2018-11-11T06:52:03.744Z,93.90
2018-11-11T06:54:37.172Z,93.90
2018-11-11T06:57:10.635Z,93.90
2018-11-11T06:59:44.151Z,93.80
2018-11-11T07:02:17.598Z,93.60
2018-11-11T07:04:51.080Z,93.50
2018-11-11T07:07:24.755Z,93.90
2018-11-11T07:09:58.601Z,93.80
2018-11-11T07:12:32.200Z,93.80
2018-11-11T07:15:06.126Z,93.80
2018-11-11T07:17:39.926Z,93.80
2018-11-11T07:20:14.075Z,93.80
2018-11-11T07:22:47.500Z,93.70
2018-11-11T07:25:21.148Z,93.50
2018-11-11T07:27:54.647Z,93.60
2018-11-11T07:30:28.166Z,93.30
2018-11-11T07:33:01.771Z,93.60
2018-11-11T07:35:35.135Z,93.60
2018-11-11T07:38:08.675Z,93.00
2018-11-11T07:40:42.016Z,93.00
2018-11-11T07:43:15.616Z,92.40
2018-11-11T07:45:49.619Z,92.30
2018-11-11T07:48:23.097Z,91.90
2018-11-11T07:50:56.637Z,91.70
2018-11-11T07:53:30.111Z,92.10
2018-11-11T07:56:03.844Z,92.30
2018-11-11T07:58:37.395Z,92.40
2018-11-11T08:01:10.975Z,91.90
2018-11-11T08:03:44.375Z,91.80
2018-11-11T08:06:18.229Z,91.70
2018-11-11T08:08:51.743Z,91.80
2018-11-11T08:11:36.895Z,91.80
2018-11-11T08:14:10.374Z,91.20
2018-11-11T08:16:44.064Z,90.70
2018-11-11T08:19:17.581Z,90.90
2018-11-11T08:21:51.264Z,91.00
2018-11-11T08:24:24.721Z,90.90
2018-11-11T08:26:58.108Z,90.80
2018-11-11T08:29:31.603Z,90.70
2018-11-11T08:32:05.761Z,90.50
2018-11-11T08:34:42.118Z,90.70
2018-11-11T08:37:16.194Z,90.60
2018-11-11T08:39:49.624Z,90.70
2018-11-11T08:42:23.114Z,90.90
2018-11-11T08:44:56.668Z,90.70
2018-11-11T08:47:30.120Z,90.50
2018-11-11T08:50:04.330Z,90.50
2018-11-11T08:52:37.791Z,90.50
2018-11-11T08:55:11.277Z,90.30
2018-11-11T08:57:44.830Z,90.50
2018-11-11T09:00:18.277Z,90.90
2018-11-11T09:02:51.751Z,90.80
2018-11-11T09:05:25.232Z,91.10
2018-11-11T09:07:58.815Z,90.80
2018-11-11T09:10:32.312Z,90.80
2018-11-11T09:13:06.055Z,90.80
2018-11-11T09:15:39.476Z,90.90
2018-11-11T09:18:12.937Z,91.20
2018-11-11T09:20:46.410Z,91.00
2018-11-11T09:23:19.821Z,91.00
2018-11-11T09:25:53.283Z,90.90
2018-11-11T09:28:28.241Z,90.80
2018-11-11T09:31:02.420Z,91.10
2018-11-11T09:33:36.053Z,91.10
2018-11-11T09:36:10.082Z,90.80
2018-11-11T09:38:43.716Z,90.60
2018-11-11T09:41:17.213Z,91.10
2018-11-11T09:43:50.868Z,90.90
2018-11-11T09:46:24.509Z,90.60
2018-11-11T09:48:58.187Z,90.60
2018-11-11T09:51:31.617Z,90.40
2018-11-11T09:54:05.372Z,90.30
2018-11-11T09:56:39.063Z,90.60
2018-11-11T09:59:12.574Z,90.40
2018-11-11T10:01:46.328Z,90.30
2018-11-11T10:04:32.934Z,90.30
2018-11-11T10:07:25.273Z,90.60
2018-11-11T10:10:07.034Z,90.40
2018-11-11T10:12:47.920Z,89.90
2018-11-11T10:17:29.467Z,90.00
2018-11-11T10:20:11.465Z,89.80
2018-11-11T10:22:50.728Z,90.10
2018-11-11T10:27:38.579Z,90.10
2018-11-11T10:30:17.280Z,89.20
2018-11-11T10:33:07.726Z,89.50
2018-11-11T10:35:47.131Z,89.60
2018-11-11T10:38:27.183Z,89.40
2018-11-11T10:41:04.904Z,88.90
2018-11-11T10:43:44.311Z,90.10
2018-11-11T10:46:23.953Z,88.80
2018-11-11T10:49:01.203Z,90.00
2018-11-11T10:51:35.252Z,89.20
2018-11-11T10:54:08.689Z,89.70
2018-11-11T10:56:42.106Z,90.10
2018-11-11T10:59:15.615Z,89.80
2018-11-11T11:01:54.811Z,89.80
2018-11-11T11:04:28.374Z,89.70
2018-11-11T11:07:05.739Z,89.30
2018-11-11T11:09:39.375Z,89.40
2018-11-11T11:12:12.960Z,89.00
2018-11-11T11:14:46.509Z,87.50
2018-11-11T11:17:20.027Z,88.10
2018-11-11T11:19:53.451Z,87.50
2018-11-11T11:22:26.880Z,87.60
2018-11-11T11:25:00.369Z,87.00
2018-11-11T11:27:33.903Z,87.50
2018-11-11T11:30:09.253Z,87.60
2018-11-11T11:32:42.710Z,87.40
2018-11-11T11:35:16.198Z,86.30
2018-11-11T11:37:49.783Z,86.00
2018-11-11T11:40:23.391Z,85.20
2018-11-11T11:42:56.889Z,85.20
2018-11-11T11:45:30.434Z,85.20
2018-11-11T11:48:03.819Z,85.70
2018-11-11T11:50:37.371Z,85.40
2018-11-11T11:53:10.977Z,86.10
2018-11-11T11:55:44.364Z,84.40
2018-11-11T11:58:25.284Z,85.40
2018-11-11T12:00:58.843Z,85.00
2018-11-11T12:03:32.384Z,84.10
2018-11-11T12:06:05.966Z,84.30
2018-11-11T12:08:39.675Z,83.60
2018-11-11T12:11:13.091Z,83.60
2018-11-11T12:13:46.684Z,83.70
2018-11-11T12:16:20.452Z,82.60
2018-11-11T12:18:53.874Z,83.00
2018-11-11T12:21:27.534Z,83.30
2018-11-11T12:24:01.070Z,82.90
2018-11-11T12:26:34.640Z,83.20
2018-11-11T12:29:08.260Z,82.70
2018-11-11T12:31:41.747Z,82.80
2018-11-11T12:34:15.395Z,82.50
2018-11-11T12:36:48.789Z,82.30
2018-11-11T12:39:22.247Z,81.40
2018-11-11T12:41:55.586Z,81.10
2018-11-11T12:44:29.168Z,81.10
2018-11-11T12:47:02.588Z,81.90
2018-11-11T12:49:36.253Z,82.10
2018-11-11T12:52:09.863Z,82.10
2018-11-11T12:54:43.479Z,81.30
2018-11-11T12:57:16.856Z,81.40
2018-11-11T12:59:50.624Z,82.00
2018-11-11T13:02:24.330Z,80.70
2018-11-11T13:04:57.856Z,80.80
2018-11-11T13:07:31.554Z,80.30
2018-11-11T13:10:06.877Z,79.50
2018-11-11T13:12:40.875Z,79.10
2018-11-11T13:15:14.399Z,79.00
2018-11-11T13:17:47.967Z,78.30
2018-11-11T13:20:21.668Z,79.10
2018-11-11T13:22:55.112Z,78.20
2018-11-11T13:25:28.631Z,79.00
2018-11-11T13:28:02.005Z,78.30
2018-11-11T13:30:35.501Z,75.80
2018-11-11T13:33:08.892Z,76.50
2018-11-11T13:35:42.419Z,77.00
2018-11-11T13:38:15.945Z,76.50
2018-11-11T13:40:49.446Z,77.50
2018-11-11T13:43:23.216Z,77.00
2018-11-11T13:45:56.787Z,76.50
2018-11-11T13:48:30.187Z,76.40
2018-11-11T13:51:03.715Z,76.80
2018-11-11T13:53:37.296Z,76.90
2018-11-11T13:56:10.762Z,77.40
2018-11-11T13:58:44.317Z,77.90
2018-11-11T14:01:17.939Z,77.90
2018-11-11T14:03:51.439Z,78.30
2018-11-11T14:06:25.149Z,78.50
2018-11-11T14:08:58.606Z,78.70
2018-11-11T14:11:32.273Z,79.00
2018-11-11T14:16:39.926Z,78.90
2018-11-11T14:19:13.849Z,79.30
2018-11-11T14:21:47.117Z,79.40
2018-11-11T14:24:20.783Z,79.50
2018-11-11T14:26:54.393Z,79.20
2018-11-11T14:29:28.040Z,79.20
2018-11-11T14:32:01.488Z,79.00
2018-11-11T14:34:35.134Z,79.70
2018-11-11T14:37:08.707Z,79.90
2018-11-11T14:39:42.434Z,80.20
2018-11-11T14:42:15.919Z,80.30
2018-11-11T14:44:49.469Z,80.70
2018-11-11T14:47:22.951Z,80.00
2018-11-11T14:49:56.556Z,80.30
2018-11-11T14:52:30.147Z,80.70
2018-11-11T14:55:04.786Z,80.80
2018-11-11T14:57:38.254Z,80.70
2018-11-11T15:00:14.579Z,81.10
2018-11-11T15:03:05.647Z,81.10
2018-11-11T15:05:39.317Z,81.50
2018-11-11T15:08:13.016Z,81.50
2018-11-11T15:10:46.800Z,81.90
2018-11-11T15:13:20.219Z,81.80
2018-11-11T15:15:53.823Z,81.90
2018-11-11T15:18:27.399Z,82.50
2018-11-11T15:21:01.053Z,82.70
2018-11-11T15:23:34.677Z,82.30
2018-11-11T15:26:08.321Z,82.70
2018-11-11T15:28:41.946Z,83.00
2018-11-11T15:31:15.509Z,83.30
2018-11-11T15:33:48.848Z,83.20
2018-11-11T15:36:22.660Z,83.20
2018-11-11T15:38:56.248Z,84.00
2018-11-11T15:41:29.760Z,83.20
2018-11-11T15:44:03.489Z,83.30
2018-11-11T15:46:37.184Z,83.20
2018-11-11T15:49:10.751Z,83.80
2018-11-11T15:51:44.327Z,83.10
2018-11-11T15:54:18.091Z,83.90
2018-11-11T15:56:51.775Z,83.10
2018-11-11T15:59:25.343Z,83.10
2018-11-11T16:01:58.864Z,83.10
2018-11-11T16:04:32.270Z,83.10
2018-11-11T16:07:05.936Z,83.10
2018-11-11T16:09:39.551Z,83.10
2018-11-11T16:12:13.175Z,83.00
2018-11-11T16:14:46.649Z,83.90
2018-11-11T16:17:20.283Z,83.80
2018-11-11T16:19:54.147Z,83.80
2018-11-11T16:22:27.763Z,84.50
2018-11-11T16:25:01.192Z,85.60
2018-11-11T16:27:34.942Z,85.90
2018-11-11T16:30:18.822Z,86.00
2018-11-11T16:32:52.835Z,87.00
2018-11-11T16:35:27.423Z,87.20
2018-11-11T16:38:01.810Z,87.20
2018-11-11T16:40:36.534Z,87.20
2018-11-11T16:43:10.218Z,87.40
2018-11-11T16:45:43.804Z,87.70
2018-11-11T16:48:17.475Z,87.10
2018-11-11T16:50:51.204Z,87.50
2018-11-11T16:53:24.731Z,87.80
2018-11-11T16:55:58.208Z,87.30
2018-11-11T16:58:31.696Z,87.90
2018-11-11T17:01:05.375Z,88.30
2018-11-11T17:03:39.273Z,88.50
2018-11-11T17:06:12.954Z,89.30
2018-11-11T17:08:46.619Z,89.80
2018-11-11T17:11:20.196Z,90.20
2018-11-11T17:13:53.880Z,90.40
2018-11-11T17:16:27.446Z,90.80
2018-11-11T17:19:00.963Z,91.30
2018-11-11T17:21:34.775Z,91.80
2018-11-11T17:24:08.395Z,91.30
2018-11-11T17:26:41.828Z,91.90
2018-11-11T17:29:15.423Z,92.00
2018-11-11T17:31:49.260Z,92.10
2018-11-11T17:34:22.816Z,92.40
2018-11-11T17:36:56.436Z,92.40
2018-11-11T17:39:30.036Z,93.00
2018-11-11T17:42:03.604Z,92.80
2018-11-11T17:44:37.161Z,92.80
2018-11-11T17:47:10.832Z,92.60
2018-11-11T17:49:44.316Z,92.70
2018-11-11T17:52:17.935Z,93.00
2018-11-11T17:54:51.697Z,93.10
2018-11-11T18:00:03.424Z,92.70
2018-11-11T18:02:37.274Z,92.60
2018-11-11T18:05:12.039Z,92.90
2018-11-11T18:07:45.738Z,92.90
2018-11-11T18:10:20.392Z,92.50
2018-11-11T18:12:53.949Z,92.80
2018-11-11T18:15:28.761Z,92.80
2018-11-11T18:18:02.420Z,93.20
2018-11-11T18:20:35.799Z,93.10
2018-11-11T18:23:09.327Z,93.40
2018-11-11T18:25:42.815Z,93.80
2018-11-11T18:28:16.653Z,93.70
2018-11-11T18:30:49.932Z,93.70
2018-11-11T18:33:23.491Z,93.30
2018-11-11T18:35:56.953Z,93.60
2018-11-11T18:38:30.518Z,93.60
2018-11-11T18:41:04.202Z,93.60
2018-11-11T18:43:37.587Z,93.90
2018-11-11T18:46:11.197Z,93.30
2018-11-11T18:48:44.681Z,93.40
2018-11-11T18:51:18.443Z,93.30
2018-11-11T18:53:52.064Z,93.40
2018-11-11T18:56:25.534Z,93.80
2018-11-11T18:58:58.943Z,94.00
2018-11-11T19:01:32.551Z,94.20
2018-11-11T19:04:06.275Z,94.20
2018-11-11T19:06:40.484Z,94.20
2018-11-11T19:09:14.128Z,93.90
2018-11-11T19:11:47.721Z,93.60
2018-11-11T19:14:21.510Z,93.80
2018-11-11T19:16:54.927Z,93.90
2018-11-11T19:19:28.423Z,93.80
2018-11-11T19:22:02.098Z,93.30
2018-11-11T19:24:35.901Z,93.20
2018-11-11T19:27:09.308Z,93.40
2018-11-11T19:29:43.045Z,93.30
2018-11-11T19:32:16.964Z,93.20
2018-11-11T19:34:50.572Z,93.00
2018-11-11T19:37:24.063Z,93.00
2018-11-11T19:39:57.854Z,92.90
2018-11-11T19:42:31.512Z,92.70
2018-11-11T19:45:06.564Z,92.80
2018-11-11T19:47:40.709Z,93.20
2018-11-11T19:50:15.638Z,93.40
2018-11-11T19:52:50.219Z,93.30
2018-11-11T19:55:24.070Z,93.50
2018-11-11T19:57:57.703Z,93.30
2018-11-11T20:00:32.098Z,93.80
2018-11-11T20:03:05.962Z,93.80
2018-11-11T20:05:39.796Z,94.20
2018-11-11T20:08:13.375Z,94.10
2018-11-11T20:10:46.993Z,94.30
2018-11-11T20:13:20.713Z,94.30
2018-11-11T20:15:54.167Z,94.40
2018-11-11T20:18:27.619Z,94.80
2018-11-11T20:21:01.132Z,94.30
2018-11-11T20:23:34.764Z,94.70
2018-11-11T20:26:08.471Z,95.00
2018-11-11T20:28:41.865Z,95.20
2018-11-11T20:31:15.259Z,95.70
2018-11-11T20:33:48.915Z,95.90
2018-11-11T20:36:22.738Z,95.90
2018-11-11T20:38:56.211Z,96.00
2018-11-11T20:41:29.817Z,95.80
2018-11-11T20:44:03.500Z,95.20
2018-11-11T20:46:37.548Z,95.70
2018-11-11T20:49:10.995Z,95.90
2018-11-11T20:51:44.492Z,96.10
2018-11-11T20:54:18.084Z,96.10
2018-11-11T20:56:51.717Z,96.10
2018-11-11T20:59:25.244Z,95.70
2018-11-11T21:01:58.884Z,96.10
2018-11-11T21:04:32.437Z,95.90
2018-11-11T21:07:06.093Z,96.00
2018-11-11T21:09:39.528Z,96.30
2018-11-11T21:12:13.212Z,96.50
2018-11-11T21:14:46.843Z,96.40
2018-11-11T21:17:21.509Z,96.20
2018-11-11T21:19:55.102Z,96.20
2018-11-11T21:22:28.587Z,96.20
2018-11-11T21:25:02.064Z,96.20
2018-11-11T21:27:36.632Z,96.20
2018-11-11T21:30:28.919Z,96.50
2018-11-11T21:33:02.589Z,96.50
2018-11-11T21:35:36.130Z,96.60
2018-11-11T21:38:09.930Z,96.80
2018-11-11T21:40:43.974Z,96.60
2018-11-11T21:43:18.171Z,96.90
2018-11-11T21:45:51.843Z,96.50
2018-11-11T21:48:25.298Z,96.50
2018-11-11T21:50:58.742Z,96.50
2018-11-11T21:53:39.471Z,96.80
2018-11-11T21:56:13.664Z,97.10
2018-11-11T21:58:49.283Z,97.10
2018-11-11T22:01:22.797Z,97.00
2018-11-11T22:03:56.522Z,97.10
2018-11-11T22:06:30.021Z,97.20
2018-11-11T22:09:06.907Z,97.30
2018-11-11T22:11:40.385Z,97.70
2018-11-11T22:14:14.080Z,97.80
2018-11-11T22:16:47.601Z,97.50
2018-11-11T22:19:21.125Z,97.10
2018-11-11T22:21:54.645Z,96.70
2018-11-11T22:24:27.951Z,96.60
2018-11-11T22:27:01.470Z,96.40
2018-11-11T22:29:35.159Z,96.40
2018-11-11T22:32:08.739Z,96.20
2018-11-11T22:34:42.361Z,96.10
2018-11-11T22:37:16.083Z,95.90
2018-11-11T22:39:49.756Z,96.20
2018-11-11T22:42:23.235Z,96.20
2018-11-11T22:44:56.872Z,96.60
2018-11-11T22:47:30.536Z,96.20
2018-11-11T22:50:05.451Z,96.20
2018-11-11T22:52:39.563Z,96.20
2018-11-11T22:55:13.196Z,96.40
2018-11-11T22:57:46.594Z,95.90
2018-11-11T23:00:25.842Z,95.80
2018-11-11T23:03:00.056Z,96.40
2018-11-11T23:05:34.437Z,96.10
2018-11-11T23:08:07.951Z,96.10
2018-11-11T23:10:41.436Z,96.10
2018-11-11T23:13:14.937Z,96.10
2018-11-11T23:15:48.578Z,96.10
2018-11-11T23:18:22.179Z,96.00
2018-11-11T23:20:55.578Z,96.10
2018-11-11T23:23:28.917Z,96.10
2018-11-11T23:26:02.438Z,95.80
2018-11-11T23:28:36.085Z,96.00
2018-11-11T23:31:09.546Z,95.90
2018-11-11T23:33:43.269Z,95.80
2018-11-11T23:36:16.808Z,95.70
2018-11-11T23:38:50.367Z,95.90
2018-11-11T23:41:24.239Z,96.00
2018-11-11T23:43:57.779Z,96.30
2018-11-11T23:46:31.436Z,96.20
2018-11-11T23:49:05.593Z,95.80
2018-11-11T23:51:39.148Z,95.70
2018-11-11T23:54:12.894Z,95.60
2018-11-11T23:56:46.593Z,95.60
2018-11-11T23:59:20.053Z,95.80
